Time;durP1;ratioP1;P1;durP2;ratioP2;P2;SDS_P1;SDS_P2;PMS_P1;PMS_P2;Temp;Humidity;BMP_temperature;BMP_pressure;BME280_temperature;BME280_humidity;BME280_pressure;Samples;Min_cycle;Max_cycle;Signal;HPM_P1;HPM_P2
2022/08/27 00:02:03;;;;;;;;;;;;;;;21.06;43.59;98883.12;1634550;86;20849;-71
2022/08/27 00:04:30;;;;;;;;;;;;;;;20.94;43.65;98885.08;1634107;86;20096;-68
2022/08/27 00:06:56;;;;;;;;;;;;;;;20.83;44.57;98888.73;1634330;86;21757;-70
2022/08/27 00:09:22;;;;;;;;;;;;;;;20.70;45.12;98880.44;1634562;86;20125;-72
2022/08/27 00:11:49;;;;;;;;;;;;;;;20.59;45.67;98880.56;1634833;86;20108;-70
2022/08/27 00:14:16;;;;;;;;;;;;;;;20.51;46.08;98883.16;1633925;86;20156;-70
2022/08/27 00:16:42;;;;;;;;;;;;;;;20.45;45.68;98879.27;1633400;86;20104;-69
2022/08/27 00:19:10;;;;;;;;;;;;;;;20.42;45.92;98874.34;1634409;86;20166;-71
2022/08/27 00:21:37;;;;;;;;;;;;;;;20.38;45.84;98875.92;1634710;86;20135;-71
2022/08/27 00:24:04;;;;;;;;;;;;;;;20.30;46.20;98874.47;1634212;86;20103;-69
2022/08/27 00:26:31;;;;;;;;;;;;;;;20.22;47.52;98880.25;1633796;86;20158;-71
2022/08/27 00:28:57;;;;;;;;;;;;;;;20.11;48.28;98886.55;1634635;86;20128;-72
2022/08/27 00:31:24;;;;;;;;;;;;;;;19.99;48.80;98883.12;1634646;86;21079;-71
2022/08/27 00:33:51;;;;;;;;;;;;;;;19.85;48.44;98882.61;1633988;86;20144;-69
2022/08/27 00:36:17;;;;;;;;;;;;;;;19.80;47.99;98885.75;1635053;85;20189;-71
2022/08/27 00:38:43;;;;;;;;;;;;;;;19.77;47.97;98886.23;1639865;86;20149;-73
2022/08/27 00:41:10;;;;;;;;;;;;;;;19.71;48.68;98882.09;1640451;86;20089;-73
2022/08/27 00:43:48;;;;;;;;;;;;;;;19.66;49.38;98890.11;1639641;86;21190;-70
2022/08/27 00:46:27;;;;;;;;;;;;;;;19.60;49.52;98886.22;1639436;86;20126;-71
2022/08/27 00:48:56;;;;;;;;;;;;;;;19.52;49.91;98890.13;1640556;86;20117;-70
2022/08/27 00:51:23;;;;;;;;;;;;;;;19.42;50.72;98894.52;1639437;86;21004;-73
2022/08/27 00:53:49;;;;;;;;;;;;;;;19.32;51.36;98894.30;1640290;86;20232;-70
2022/08/27 00:56:18;;;;;;;;;;;;;;;19.25;51.42;98890.90;1615716;86;22318;-68
2022/08/27 00:58:47;;;;;;;;;;;;;;;19.19;51.66;98894.02;1639650;86;20118;-69
2022/08/27 01:01:15;;;;;;;;;;;;;;;19.11;52.12;98891.17;1640413;86;20468;-69
2022/08/27 01:03:46;;;;;;;;;;;;;;;19.05;52.90;98891.33;1649722;86;20164;-69
2022/08/27 01:06:13;;;;;;;;;;;;;;;18.98;53.37;98885.27;1640569;86;20121;-68
2022/08/27 01:08:43;;;;;;;;;;;;;;;18.90;52.96;98888.33;1616446;86;21126;-69
2022/08/27 01:11:10;;;;;;;;;;;;;;;18.88;52.88;98889.89;1639948;86;20114;-69
2022/08/27 01:13:39;;;;;;;;;;;;;;;18.87;52.64;98882.05;1639383;86;20110;-71
2022/08/27 01:16:05;;;;;;;;;;;;;;;18.85;52.43;98882.83;1640412;86;20102;-68
2022/08/27 01:18:33;;;;;;;;;;;;;;;18.80;52.89;98878.13;1639423;86;20138;-68
2022/08/27 01:21:20;;;;;;;;;;;;;;;18.80;53.51;98882.70;1640302;86;22101;-67
2022/08/27 01:23:56;;;;;;;;;;;;;;;18.77;54.09;98877.80;1639669;86;20306;-71
2022/08/27 01:26:22;;;;;;;;;;;;;;;18.72;54.37;98879.84;1623203;86;20141;-67
2022/08/27 01:28:50;;;;;;;;;;;;;;;18.65;54.62;98887.76;1639724;86;20090;-68
2022/08/27 01:31:16;;;;;;;;;;;;;;;18.58;54.92;98888.42;1614624;87;20101;-68
2022/08/27 01:33:46;;;;;;;;;;;;;;;18.51;55.17;98882.34;1639690;86;21933;-70
2022/08/27 01:36:12;;;;;;;;;;;;;;;18.43;55.33;98884.84;1638194;85;20138;-68
2022/08/27 01:38:40;;;;;;;;;;;;;;;18.38;55.53;98884.17;1634309;86;20139;-67
2022/08/27 01:41:06;;;;;;;;;;;;;;;18.32;55.64;98879.74;1621527;86;20104;-67
2022/08/27 01:43:33;;;;;;;;;;;;;;;18.27;55.97;98883.67;1634126;86;20462;-69
2022/08/27 01:45:59;;;;;;;;;;;;;;;18.24;55.59;98885.48;1634270;86;21322;-68
2022/08/27 01:48:25;;;;;;;;;;;;;;;18.24;55.67;98886.82;1633812;86;20096;-69
2022/08/27 01:50:52;;;;;;;;;;;;;;;18.21;55.61;98879.20;1633537;86;20451;-68
2022/08/27 01:53:21;;;;;;;;;;;;;;;18.20;55.50;98885.63;1634047;86;20116;-69
2022/08/27 01:55:48;;;;;;;;;;;;;;;18.20;55.71;98887.50;1620813;88;20477;-67
2022/08/27 01:58:16;;;;;;;;;;;;;;;18.19;55.90;98882.66;1631490;86;20567;-70
2022/08/27 02:00:44;;;;;;;;;;;;;;;18.18;55.63;98882.88;1634047;86;20476;-70
2022/08/27 02:03:10;;;;;;;;;;;;;;;18.20;55.46;98890.19;1633633;86;20175;-71
2022/08/27 02:05:39;;;;;;;;;;;;;;;18.22;54.43;98884.89;1634678;86;20980;-69
2022/08/27 02:08:06;;;;;;;;;;;;;;;18.26;54.22;98880.67;1634748;86;20174;-70
2022/08/27 02:10:35;;;;;;;;;;;;;;;18.25;54.63;98881.71;1634480;86;21999;-69
2022/08/27 02:13:02;;;;;;;;;;;;;;;18.25;54.55;98882.27;1631271;86;20088;-69
2022/08/27 02:15:28;;;;;;;;;;;;;;;18.24;54.09;98880.09;1634871;86;20446;-70
2022/08/27 02:17:55;;;;;;;;;;;;;;;18.25;53.76;98870.94;1634347;86;20152;-71
2022/08/27 02:20:21;;;;;;;;;;;;;;;18.28;53.32;98873.69;1634911;86;20124;-74
2022/08/27 02:22:48;;;;;;;;;;;;;;;18.32;52.90;98879.74;1633091;86;21886;-70
2022/08/27 02:25:15;;;;;;;;;;;;;;;18.34;52.85;98880.33;1634176;86;21255;-71
2022/08/27 02:27:43;;;;;;;;;;;;;;;18.34;53.30;98878.98;1634914;86;20431;-73
2022/08/27 02:30:11;;;;;;;;;;;;;;;18.32;53.10;98877.58;1635298;86;20124;-70
2022/08/27 02:32:37;;;;;;;;;;;;;;;18.32;52.99;98871.67;1634619;86;20484;-69
2022/08/27 02:35:05;;;;;;;;;;;;;;;18.30;52.62;98873.75;1634915;86;21111;-70
2022/08/27 02:37:31;;;;;;;;;;;;;;;18.31;52.26;98870.02;1631730;85;20092;-70
2022/08/27 02:40:00;;;;;;;;;;;;;;;18.33;52.07;98869.77;1646428;86;20446;-72
2022/08/27 02:42:27;;;;;;;;;;;;;;;18.33;52.14;98875.98;1646132;86;20123;-70
2022/08/27 02:44:53;;;;;;;;;;;;;;;18.33;52.46;98865.20;1646513;86;20172;-69
2022/08/27 02:47:20;;;;;;;;;;;;;;;18.31;52.05;98871.36;1645904;86;21182;-69
2022/08/27 02:49:46;;;;;;;;;;;;;;;18.31;52.18;98869.19;1646162;86;20154;-70
2022/08/27 02:52:13;;;;;;;;;;;;;;;18.32;52.09;98864.94;1645785;86;20437;-72
2022/08/27 02:54:39;;;;;;;;;;;;;;;18.33;51.94;98869.77;1646392;86;20185;-71
2022/08/27 02:57:05;;;;;;;;;;;;;;;18.32;51.99;98864.94;1646477;85;20125;-71
2022/08/27 02:59:31;;;;;;;;;;;;;;;18.30;51.88;98861.63;1646379;86;21165;-69
2022/08/27 03:01:58;;;;;;;;;;;;;;;18.31;51.91;98865.16;1645634;85;20216;-69
2022/08/27 03:04:24;;;;;;;;;;;;;;;18.30;51.98;98860.28;1646504;85;20148;-71
2022/08/27 03:06:50;;;;;;;;;;;;;;;18.28;51.92;98861.05;1646392;85;20158;-69
2022/08/27 03:09:17;;;;;;;;;;;;;;;18.26;52.03;98861.83;1628048;86;20449;-69
2022/08/27 03:11:43;;;;;;;;;;;;;;;18.26;52.58;98866.38;1645091;85;21165;-69
2022/08/27 03:14:10;;;;;;;;;;;;;;;18.25;52.31;98863.42;1646129;85;20081;-69
2022/08/27 03:16:36;;;;;;;;;;;;;;;18.21;52.05;98856.33;1646246;86;20115;-69
2022/08/27 03:19:05;;;;;;;;;;;;;;;18.22;51.93;98855.80;1645837;85;20883;-71
2022/08/27 03:21:32;;;;;;;;;;;;;;;18.25;51.73;98858.03;1645072;86;20095;-71
2022/08/27 03:24:00;;;;;;;;;;;;;;;18.26;51.69;98858.30;1646094;86;21826;-71
2022/08/27 03:26:30;;;;;;;;;;;;;;;18.27;51.75;98856.74;1646351;86;20441;-71
2022/08/27 03:28:56;;;;;;;;;;;;;;;18.30;51.71;98856.80;1646604;86;20446;-72
2022/08/27 03:31:28;;;;;;;;;;;;;;;18.29;51.93;98863.23;1637074;86;20128;-73
2022/08/27 03:33:59;;;;;;;;;;;;;;;18.24;51.98;98861.77;1646167;86;20103;-73
2022/08/27 03:36:27;;;;;;;;;;;;;;;18.22;51.84;98863.36;1646441;85;21198;-71
2022/08/27 03:38:53;;;;;;;;;;;;;;;18.20;51.89;98859.23;1649041;85;20140;-72
2022/08/27 03:41:21;;;;;;;;;;;;;;;18.17;52.11;98865.91;1648617;85;20095;-72
2022/08/27 03:43:47;;;;;;;;;;;;;;;18.17;51.95;98863.22;1649292;85;20166;-70
2022/08/27 03:46:13;;;;;;;;;;;;;;;18.21;51.83;98863.05;1649170;85;20462;-70
2022/08/27 03:48:40;;;;;;;;;;;;;;;18.28;51.83;98856.19;1648465;85;21167;-70
2022/08/27 03:51:09;;;;;;;;;;;;;;;18.36;51.85;98851.28;1648572;85;20104;-70
2022/08/27 03:53:36;;;;;;;;;;;;;;;18.47;51.42;98855.05;1648804;85;20103;-73
2022/08/27 03:56:03;;;;;;;;;;;;;;;18.55;51.33;98850.66;1649260;85;20465;-72
2022/08/27 03:58:30;;;;;;;;;;;;;;;18.67;51.09;98854.66;1648913;85;20127;-69
2022/08/27 04:00:57;;;;;;;;;;;;;;;18.77;50.78;98852.20;1647684;85;21182;-68
2022/08/27 04:03:23;;;;;;;;;;;;;;;18.88;50.45;98852.69;1647755;85;20122;-68
2022/08/27 04:05:54;;;;;;;;;;;;;;;19.04;50.38;98858.67;1649376;85;20437;-67
2022/08/27 04:08:21;;;;;;;;;;;;;;;19.24;50.53;98857.72;1649383;85;20855;-67
2022/08/27 04:10:48;;;;;;;;;;;;;;;19.49;50.04;98854.20;1648624;85;20118;-68
2022/08/27 04:13:16;;;;;;;;;;;;;;;19.71;49.29;98851.59;1648515;85;21168;-68
2022/08/27 04:15:43;;;;;;;;;;;;;;;19.97;48.66;98848.81;1649105;85;20091;-68
2022/08/27 04:18:11;;;;;;;;;;;;;;;20.23;47.90;98842.73;1648739;85;20095;-68
2022/08/27 04:20:38;;;;;;;;;;;;;;;20.52;47.13;98836.70;1648685;85;20972;-66
2022/08/27 04:23:04;;;;;;;;;;;;;;;20.80;46.49;98836.00;1649260;85;20458;-70
2022/08/27 04:25:31;;;;;;;;;;;;;;;21.13;46.06;98833.70;1649264;85;21176;-67
2022/08/27 04:27:57;;;;;;;;;;;;;;;21.46;45.36;98836.73;1649180;85;20146;-67
2022/08/27 04:30:24;;;;;;;;;;;;;;;21.82;44.69;98840.05;1651038;85;20524;-71
2022/08/27 04:32:50;;;;;;;;;;;;;;;22.17;43.91;98833.31;1649000;85;20180;-67
2022/08/27 04:35:16;;;;;;;;;;;;;;;22.50;43.00;98833.80;1649102;85;20178;-73
2022/08/27 04:37:43;;;;;;;;;;;;;;;22.82;42.18;98835.08;1647764;85;22024;-68
2022/08/27 04:40:09;;;;;;;;;;;;;;;23.16;41.67;98834.94;1646038;86;20107;-68
2022/08/27 04:42:37;;;;;;;;;;;;;;;23.48;40.78;98827.98;1645477;85;20096;-68
2022/08/27 04:45:04;;;;;;;;;;;;;;;23.73;40.18;98835.33;1646466;86;20124;-72
2022/08/27 04:47:30;;;;;;;;;;;;;;;24.02;39.67;98833.71;1645128;86;20128;-69
2022/08/27 04:49:58;;;;;;;;;;;;;;;24.33;39.57;98832.62;1646170;86;21182;-68
2022/08/27 04:52:24;;;;;;;;;;;;;;;24.71;39.46;98833.08;1645360;86;20114;-68
2022/08/27 04:54:51;;;;;;;;;;;;;;;25.07;39.05;98832.69;1646517;86;20104;-68
2022/08/27 04:57:17;;;;;;;;;;;;;;;25.32;37.92;98830.91;1646422;85;20620;-69
2022/08/27 04:59:43;;;;;;;;;;;;;;;25.54;37.43;98833.53;1646443;86;20092;-69
2022/08/27 05:02:10;;;;;;;;;;;;;;;25.82;37.36;98830.59;1645313;86;21347;-69
2022/08/27 05:04:38;;;;;;;;;;;;;;;26.16;36.80;98836.06;1646324;85;20128;-68
2022/08/27 05:07:05;;;;;;;;;;;;;;;26.44;36.26;98828.42;1646337;85;20107;-70
2022/08/27 05:09:33;;;;;;;;;;;;;;;26.78;35.66;98831.89;1645685;86;20119;-71
2022/08/27 05:12:00;;;;;;;;;;;;;;;27.04;34.94;98828.29;1645466;85;20104;-72
2022/08/27 05:14:31;;;;;;;;;;;;;;;27.25;34.86;98829.64;1628711;85;21286;-70
2022/08/27 05:16:58;;;;;;;;;;;;;;;27.53;34.56;98834.18;1646102;86;20172;-70
2022/08/27 05:19:25;;;;;;;;;;;;;;;27.83;33.98;98832.91;1645496;85;20447;-71
2022/08/27 05:21:56;;;;;;;;;;;;;;;28.11;33.81;98837.94;1645801;86;20107;-71
2022/08/27 05:24:20;;;;;;;;;;;;;;;28.38;33.32;98831.73;1644414;86;20453;-71
2022/08/27 05:26:46;;;;;;;;;;;;;;;28.70;32.83;98834.44;1646330;86;21160;-69
2022/08/27 05:29:13;;;;;;;;;;;;;;;29.00;32.68;98831.07;1646359;86;20108;-69
2022/08/27 05:31:40;;;;;;;;;;;;;;;29.28;32.00;98829.94;1646026;85;20170;-71
2022/08/27 05:34:06;;;;;;;;;;;;;;;29.58;31.32;98829.82;1645600;86;20100;-69
2022/08/27 05:36:33;;;;;;;;;;;;;;;29.81;31.06;98829.30;1646410;86;20139;-69
2022/08/27 05:39:00;;;;;;;;;;;;;;;30.09;30.53;98824.51;1646423;85;21167;-70
2022/08/27 05:41:29;;;;;;;;;;;;;;;30.39;30.02;98830.59;1646340;85;20079;-69
2022/08/27 05:43:56;;;;;;;;;;;;;;;30.71;29.61;98830.83;1646604;85;20116;-72
2022/08/27 05:46:23;;;;;;;;;;;;;;;30.94;29.07;98833.20;1646780;85;20155;-70
2022/08/27 05:48:50;;;;;;;;;;;;;;;31.21;28.67;98838.20;1646154;85;20119;-71
2022/08/27 05:51:19;;;;;;;;;;;;;;;31.45;28.19;98836.63;1646198;86;21795;-73
2022/08/27 05:53:45;;;;;;;;;;;;;;;31.70;27.96;98841.32;1645902;85;20091;-72
2022/08/27 05:56:20;;;;;;;;;;;;;;;31.95;27.73;98838.33;1645501;85;20172;-70
2022/08/27 06:01:34;;;;;;;;;;;;;;;32.43;27.45;98836.73;1646584;86;20124;-72
2022/08/27 06:04:00;;;;;;;;;;;;;;;32.72;26.88;98835.42;1646493;85;21155;-70
2022/08/27 06:06:26;;;;;;;;;;;;;;;32.95;26.61;98827.16;1646217;85;20425;-70
2022/08/27 06:08:53;;;;;;;;;;;;;;;33.14;26.41;98825.34;1646615;85;20178;-70
2022/08/27 06:11:19;;;;;;;;;;;;;;;33.32;26.18;98828.82;1646095;85;20155;-72
2022/08/27 06:13:46;;;;;;;;;;;;;;;33.54;25.97;98822.97;1646352;86;20108;-71
2022/08/27 06:16:15;;;;;;;;;;;;;;;33.81;25.55;98825.78;1644227;85;21202;-67
2022/08/27 06:18:44;;;;;;;;;;;;;;;34.06;25.25;98822.80;1644082;86;20190;-72
2022/08/27 06:21:10;;;;;;;;;;;;;;;34.32;25.21;98826.66;1643947;86;20156;-72
2022/08/27 06:23:36;;;;;;;;;;;;;;;34.52;24.47;98824.99;1643357;85;20600;-72
2022/08/27 06:26:07;;;;;;;;;;;;;;;34.54;24.49;98824.06;1643374;86;20202;-72
2022/08/27 06:28:34;;;;;;;;;;;;;;;34.70;24.43;98819.52;1644237;86;21087;-72
2022/08/27 06:31:04;;;;;;;;;;;;;;;34.99;24.20;98830.31;1643427;86;20147;-73
2022/08/27 06:33:31;;;;;;;;;;;;;;;35.22;23.89;98825.95;1643269;86;20194;-65
2022/08/27 06:36:00;;;;;;;;;;;;;;;35.38;23.63;98828.02;1644040;86;20159;-71
2022/08/27 06:38:27;;;;;;;;;;;;;;;35.52;23.84;98831.20;1638298;86;20148;-72
2022/08/27 06:40:54;;;;;;;;;;;;;;;35.93;23.33;98831.66;1630992;88;20494;-71
2022/08/27 06:43:22;;;;;;;;;;;;;;;36.42;22.47;98829.46;1631034;86;20567;-72
2022/08/27 06:45:48;;;;;;;;;;;;;;;36.89;21.78;98825.34;1638528;86;20509;-70
2022/08/27 06:48:14;;;;;;;;;;;;;;;37.33;21.32;98821.86;1629608;88;20096;-70
2022/08/27 06:50:41;;;;;;;;;;;;;;;37.69;20.85;98817.33;1619895;88;20187;-70
2022/08/27 06:53:07;;;;;;;;;;;;;;;38.05;20.70;98813.89;1630080;88;21192;-71
2022/08/27 06:55:45;;;;;;;;;;;;;;;38.36;20.16;98815.11;1629426;88;20149;-71
2022/08/27 06:58:12;;;;;;;;;;;;;;;38.66;19.82;98816.05;1632238;86;20259;-69
2022/08/27 07:00:39;;;;;;;;;;;;;;;38.95;19.39;98817.92;1634352;86;20185;-70
2022/08/27 07:03:06;;;;;;;;;;;;;;;39.25;19.21;98806.28;1638220;86;20453;-69
2022/08/27 07:05:33;;;;;;;;;;;;;;;39.54;18.67;98808.28;1611322;87;21176;-70
2022/08/27 07:08:00;;;;;;;;;;;;;;;39.74;18.16;98808.95;1638234;86;20142;-69
2022/08/27 07:10:27;;;;;;;;;;;;;;;39.91;17.81;98810.57;1611102;87;20096;-69
2022/08/27 07:12:53;;;;;;;;;;;;;;;40.10;17.86;98810.20;1633261;86;20134;-70
2022/08/27 07:15:20;;;;;;;;;;;;;;;40.37;17.89;98802.72;1637975;86;20131;-72
2022/08/27 07:17:49;;;;;;;;;;;;;;;40.62;17.66;98802.37;1610775;89;21753;-70
2022/08/27 07:20:16;;;;;;;;;;;;;;;40.78;17.52;98808.29;1636298;87;20106;-71
2022/08/27 07:22:42;;;;;;;;;;;;;;;40.90;17.10;98802.43;1635782;86;20459;-71
2022/08/27 07:25:11;;;;;;;;;;;;;;;41.05;16.67;98806.33;1623429;88;20121;-71
2022/08/27 07:27:38;;;;;;;;;;;;;;;41.10;16.54;98800.97;1623990;86;20120;-70
2022/08/27 07:30:07;;;;;;;;;;;;;;;41.19;16.37;98799.45;1629658;88;21814;-71
2022/08/27 07:32:33;;;;;;;;;;;;;;;41.34;16.43;98796.76;1626947;88;20105;-70
2022/08/27 07:34:59;;;;;;;;;;;;;;;41.50;16.15;98795.84;1627010;88;20451;-71
2022/08/27 07:37:26;;;;;;;;;;;;;;;41.63;16.24;98799.90;1627422;88;20457;-72
2022/08/27 07:39:52;;;;;;;;;;;;;;;41.82;16.33;98795.42;1626843;87;20141;-70
2022/08/27 07:45:04;;;;;;;;;;;;;;;42.11;15.95;98799.88;1626867;88;20092;-72
2022/08/27 07:47:31;;;;;;;;;;;;;;;42.23;15.74;98798.16;1628281;88;20127;-70
2022/08/27 07:49:57;;;;;;;;;;;;;;;42.31;15.78;98794.77;1627230;88;20096;-72
2022/08/27 07:52:23;;;;;;;;;;;;;;;42.41;15.68;98789.78;1626729;88;20492;-69
2022/08/27 07:54:50;;;;;;;;;;;;;;;42.55;15.65;98795.42;1633248;86;21151;-69
2022/08/27 07:57:17;;;;;;;;;;;;;;;42.62;15.43;98792.62;1630787;88;20125;-71
2022/08/27 07:59:43;;;;;;;;;;;;;;;42.58;15.36;98792.43;1631196;86;20132;-71
2022/08/27 08:02:11;;;;;;;;;;;;;;;42.64;15.26;98796.41;1637535;86;20194;-71
2022/08/27 08:04:37;;;;;;;;;;;;;;;42.78;15.25;98791.63;1630162;86;20157;-69
2022/08/27 08:07:04;;;;;;;;;;;;;;;42.95;15.04;98795.62;1630680;86;21211;-70
2022/08/27 08:09:31;;;;;;;;;;;;;;;43.09;14.89;98792.00;1632375;86;20222;-69
2022/08/27 08:11:58;;;;;;;;;;;;;;;43.30;14.77;98791.95;1631727;86;20201;-71
2022/08/27 08:14:24;;;;;;;;;;;;;;;43.41;14.73;98792.13;1632090;86;20100;-71
2022/08/27 08:16:50;;;;;;;;;;;;;;;43.48;14.51;98790.73;1632015;86;20458;-71
2022/08/27 08:19:17;;;;;;;;;;;;;;;43.56;14.21;98790.91;1631967;86;21258;-71
2022/08/27 08:21:43;;;;;;;;;;;;;;;43.65;13.81;98794.64;1630748;86;20138;-70
2022/08/27 08:24:09;;;;;;;;;;;;;;;43.69;13.64;98787.05;1629240;86;20103;-69
2022/08/27 08:26:35;;;;;;;;;;;;;;;43.84;14.10;98782.99;1631861;86;21297;-69
2022/08/27 08:29:05;;;;;;;;;;;;;;;44.04;14.07;98778.47;1631134;86;20108;-70
2022/08/27 08:31:31;;;;;;;;;;;;;;;44.22;13.87;98775.60;1620466;86;21279;-70
2022/08/27 08:33:57;;;;;;;;;;;;;;;44.31;13.63;98775.92;1632090;86;20445;-70
2022/08/27 08:36:24;;;;;;;;;;;;;;;44.35;13.54;98777.31;1631997;86;20215;-72
2022/08/27 08:38:50;;;;;;;;;;;;;;;44.36;13.47;98781.09;1635317;86;20124;-76
2022/08/27 08:41:30;;;;;;;;;;;;;;;44.39;13.54;98777.47;1643465;86;20444;-76
2022/08/27 08:43:57;;;;;;;;;;;;;;;44.38;13.51;98779.30;1644245;86;21864;-75
2022/08/27 08:46:38;;;;;;;;;;;;;;;44.24;13.55;98786.39;1648755;86;20094;-75
2022/08/27 08:49:11;;;;;;;;;;;;;;;44.10;13.42;98783.07;1640609;86;20194;-75
2022/08/27 08:51:41;;;;;;;;;;;;;;;44.09;13.28;98785.66;1644533;85;20104;-76
2022/08/27 08:54:10;;;;;;;;;;;;;;;44.14;13.09;98779.66;1643110;86;20139;-75
2022/08/27 08:56:44;;;;;;;;;;;;;;;44.27;12.52;98778.56;1643602;86;21203;-74
2022/08/27 08:59:20;;;;;;;;;;;;;;;44.37;12.26;98771.48;1634445;86;20107;-75
2022/08/27 09:01:48;;;;;;;;;;;;;;;44.46;12.06;98778.00;1643511;86;20092;-76
2022/08/27 09:04:14;;;;;;;;;;;;;;;44.50;11.76;98776.81;1643624;86;20608;-73
2022/08/27 09:06:48;;;;;;;;;;;;;;;44.57;11.78;98779.55;1643128;86;20107;-76
2022/08/27 09:09:26;;;;;;;;;;;;;;;44.61;11.91;98781.70;1645134;85;21766;-75
2022/08/27 09:12:14;;;;;;;;;;;;;;;44.67;11.93;98777.86;1644120;87;20104;-75
2022/08/27 09:14:41;;;;;;;;;;;;;;;44.80;12.02;98774.14;1628773;86;20310;-73
2022/08/27 09:17:08;;;;;;;;;;;;;;;44.75;11.84;98768.97;1643634;86;20667;-73
2022/08/27 09:19:34;;;;;;;;;;;;;;;44.72;12.14;98777.41;1644227;86;20103;-72
2022/08/27 09:22:14;;;;;;;;;;;;;;;44.63;12.08;98773.70;1644376;86;21719;-75
2022/08/27 09:25:05;;;;;;;;;;;;;;;44.47;12.06;98773.41;1624446;86;20146;-72
2022/08/27 09:27:33;;;;;;;;;;;;;;;44.25;12.09;98770.55;1642645;86;20128;-74
2022/08/27 09:30:03;;;;;;;;;;;;;;;43.95;12.14;98775.34;1615993;87;20202;-74
2022/08/27 09:32:32;;;;;;;;;;;;;;;43.81;12.47;98773.20;1643048;86;20111;-74
2022/08/27 09:34:59;;;;;;;;;;;;;;;43.81;12.67;98769.00;1642943;86;21183;-75
2022/08/27 09:37:34;;;;;;;;;;;;;;;43.81;12.69;98771.20;1643532;86;20127;-74
2022/08/27 09:40:20;;;;;;;;;;;;;;;43.74;12.33;98783.05;1628780;86;20088;-73
2022/08/27 09:42:49;;;;;;;;;;;;;;;43.65;12.54;98780.64;1639214;86;20160;-72
2022/08/27 09:45:26;;;;;;;;;;;;;;;43.52;12.50;98776.70;1639139;86;36290;-72
2022/08/27 09:48:04;;;;;;;;;;;;;;;43.34;12.82;98768.38;1638526;86;21778;-73
2022/08/27 09:50:44;;;;;;;;;;;;;;;43.26;12.84;98769.56;1636990;86;20560;-74
2022/08/27 09:53:30;;;;;;;;;;;;;;;43.17;12.90;98773.41;1639251;86;20108;-73
2022/08/27 09:55:59;;;;;;;;;;;;;;;43.10;12.97;98766.41;1638646;86;20100;-73
2022/08/27 09:58:29;;;;;;;;;;;;;;;42.95;13.25;98774.64;1638663;86;20111;-74
2022/08/27 10:01:01;;;;;;;;;;;;;;;42.83;13.34;98777.83;1637589;86;21122;-73
2022/08/27 10:03:27;;;;;;;;;;;;;;;42.75;13.37;98768.66;1638570;86;20154;-73
2022/08/27 10:05:54;;;;;;;;;;;;;;;42.84;13.62;98773.84;1638369;86;20478;-75
2022/08/27 10:08:24;;;;;;;;;;;;;;;42.81;13.65;98772.62;1639256;86;20171;-71
2022/08/27 10:10:58;;;;;;;;;;;;;;;42.79;13.53;98770.03;1642487;86;20109;-70
2022/08/27 10:13:34;;;;;;;;;;;;;;;42.67;13.57;98769.05;1638865;86;21154;-75
2022/08/27 10:16:24;;;;;;;;;;;;;;;42.45;13.44;98764.82;1636957;86;20164;-70
2022/08/27 10:19:19;;;;;;;;;;;;;;;42.40;13.55;98763.83;1636506;86;20442;-70
2022/08/27 10:22:15;;;;;;;;;;;;;;;42.38;13.65;98763.43;1639332;86;20092;-69
2022/08/27 10:25:00;;;;;;;;;;;;;;;42.20;13.70;98755.63;1639439;86;20100;-69
2022/08/27 10:27:37;;;;;;;;;;;;;;;42.07;13.51;98763.36;1639344;86;21176;-70
2022/08/27 10:30:06;;;;;;;;;;;;;;;41.83;13.47;98762.10;1639281;86;20151;-70
2022/08/27 10:32:56;;;;;;;;;;;;;;;41.70;13.55;98759.44;1639768;86;20179;-69
2022/08/27 10:35:29;;;;;;;;;;;;;;;41.53;13.58;98760.18;1639206;86;20116;-70
2022/08/27 10:38:19;;;;;;;;;;;;;;;41.22;13.92;98767.96;1639021;86;20111;-69
2022/08/27 10:40:53;;;;;;;;;;;;;;;40.87;14.42;98762.15;1633367;86;21239;-68
2022/08/27 10:43:56;;;;;;;;;;;;;;;40.50;14.47;98762.27;1632200;86;20131;-70
2022/08/27 10:46:36;;;;;;;;;;;;;;;40.25;14.57;98760.41;1632177;86;20108;-69
2022/08/27 10:49:16;;;;;;;;;;;;;;;39.96;14.87;98764.87;1632722;86;20125;-69
2022/08/27 10:52:03;;;;;;;;;;;;;;;39.80;14.93;98762.31;1632679;86;20124;-70
2022/08/27 10:54:33;;;;;;;;;;;;;;;39.75;15.05;98769.61;1617556;86;21218;-71
2022/08/27 10:57:12;;;;;;;;;;;;;;;39.67;14.92;98760.97;1629955;86;20224;-70
2022/08/27 10:59:45;;;;;;;;;;;;;;;39.50;14.89;98769.88;1632244;86;20493;-72
2022/08/27 11:02:15;;;;;;;;;;;;;;;39.23;14.97;98760.78;1632091;86;20096;-70
2022/08/27 11:04:52;;;;;;;;;;;;;;;39.03;14.76;98768.20;1632301;86;20129;-70
2022/08/27 11:07:24;;;;;;;;;;;;;;;38.86;14.99;98766.17;1634234;86;21125;-71
2022/08/27 11:10:17;;;;;;;;;;;;;;;38.70;15.32;98764.67;1631654;86;20137;-72
2022/08/27 11:12:45;;;;;;;;;;;;;;;38.69;15.29;98766.64;1632226;86;20088;-71
2022/08/27 11:15:18;;;;;;;;;;;;;;;38.66;15.46;98763.83;1632109;86;20146;-71
2022/08/27 11:18:02;;;;;;;;;;;;;;;38.51;15.75;98764.78;1631762;86;20137;-70
2022/08/27 11:20:49;;;;;;;;;;;;;;;38.37;15.83;98747.86;1632082;86;21250;-71
2022/08/27 11:23:17;;;;;;;;;;;;;;;38.24;15.93;98763.88;1632183;86;20104;-69
2022/08/27 11:25:56;;;;;;;;;;;;;;;38.09;15.84;98754.48;1632330;86;20442;-71
2022/08/27 11:28:26;;;;;;;;;;;;;;;37.93;15.83;98751.61;1632090;86;20132;-70
2022/08/27 11:30:56;;;;;;;;;;;;;;;37.80;15.94;98753.72;1627420;86;20152;-69
2022/08/27 11:33:39;;;;;;;;;;;;;;;37.62;16.26;98754.73;1632123;86;21165;-70
2022/08/27 11:36:18;;;;;;;;;;;;;;;37.44;16.73;98756.34;1632079;86;20105;-69
2022/08/27 11:39:06;;;;;;;;;;;;;;;37.26;16.71;98744.04;1632233;86;20104;-73
2022/08/27 11:42:00;;;;;;;;;;;;;;;37.16;16.75;98759.86;1651327;85;20136;-71
2022/08/27 11:44:26;;;;;;;;;;;;;;;37.00;16.49;98752.17;1673241;84;20145;-69
2022/08/27 11:46:56;;;;;;;;;;;;;;;36.68;16.67;98753.38;1673072;84;21227;-70
2022/08/27 11:49:26;;;;;;;;;;;;;;;36.54;17.06;98745.52;1643746;86;20565;-69
2022/08/27 11:52:01;;;;;;;;;;;;;;;36.40;17.34;98752.05;1644411;86;20425;-70
2022/08/27 11:54:31;;;;;;;;;;;;;;;36.12;17.58;98747.98;1673238;84;20160;-71
2022/08/27 11:56:57;;;;;;;;;;;;;;;35.91;18.06;98746.00;1644479;86;20214;-72
2022/08/27 11:59:30;;;;;;;;;;;;;;;35.74;18.49;98742.19;1667643;84;21088;-71
2022/08/27 12:01:59;;;;;;;;;;;;;;;35.60;18.16;98752.84;1641572;86;20122;-69
2022/08/27 12:04:35;;;;;;;;;;;;;;;35.32;17.94;98743.94;1644300;86;20091;-69
2022/08/27 12:07:08;;;;;;;;;;;;;;;35.13;18.54;98750.66;1643548;86;20700;-68
2022/08/27 12:09:59;;;;;;;;;;;;;;;34.95;18.89;98743.75;1672267;84;20155;-71
2022/08/27 12:12:52;;;;;;;;;;;;;;;34.78;19.43;98746.78;1671984;84;21293;-72
2022/08/27 12:15:22;;;;;;;;;;;;;;;34.49;18.97;98743.65;1644440;86;20207;-71
2022/08/27 12:18:02;;;;;;;;;;;;;;;34.30;19.30;98741.20;1673117;84;20145;-69
2022/08/27 12:20:47;;;;;;;;;;;;;;;34.13;19.25;98736.11;1644001;86;20470;-70
2022/08/27 12:23:42;;;;;;;;;;;;;;;34.00;19.02;98739.16;1673269;84;20101;-70
2022/08/27 12:26:18;;;;;;;;;;;;;;;33.88;19.70;98741.33;1643677;86;22000;-70
2022/08/27 12:28:44;;;;;;;;;;;;;;;33.70;20.23;98740.45;1673018;84;20101;-69
2022/08/27 12:31:11;;;;;;;;;;;;;;;33.55;20.39;98744.63;1644427;86;20176;-70
2022/08/27 12:33:43;;;;;;;;;;;;;;;33.46;20.58;98737.80;1628990;86;20105;-70
2022/08/27 12:36:12;;;;;;;;;;;;;;;33.44;20.44;98738.73;1645902;86;20127;-69
2022/08/27 12:38:46;;;;;;;;;;;;;;;33.32;20.73;98733.73;1672116;84;21753;-69
2022/08/27 12:41:31;;;;;;;;;;;;;;;33.27;21.01;98734.72;1634857;86;20094;-70
2022/08/27 12:44:09;;;;;;;;;;;;;;;33.18;20.90;98725.73;1641481;86;20533;-69
2022/08/27 12:46:39;;;;;;;;;;;;;;;33.14;21.09;98721.23;1631625;86;20623;-71
2022/08/27 12:49:05;;;;;;;;;;;;;;;33.12;21.28;98719.36;1632836;86;20090;-70
2022/08/27 12:51:34;;;;;;;;;;;;;;;33.06;21.40;98720.72;1637219;87;21148;-70
2022/08/27 12:54:41;;;;;;;;;;;;;;;32.98;21.71;98725.91;1656079;86;20154;-69
2022/08/27 12:57:20;;;;;;;;;;;;;;;32.92;21.48;98721.77;1649265;86;20434;-69
2022/08/27 13:00:14;;;;;;;;;;;;;;;32.83;21.39;98729.26;1639206;86;20095;-69
2022/08/27 13:03:17;;;;;;;;;;;;;;;32.75;21.83;98720.48;1630269;86;20120;-69
2022/08/27 13:05:45;;;;;;;;;;;;;;;32.69;21.84;98719.08;1639189;86;21163;-68
2022/08/27 13:08:21;;;;;;;;;;;;;;;32.66;22.05;98717.55;1638016;86;20113;-70
2022/08/27 13:10:48;;;;;;;;;;;;;;;32.63;22.33;98714.89;1638916;86;20147;-71